Weather at Flughafen München-Riem [CLOSED]

Public forecast

Using degrees Celsius for public forecast. Weather courtesy of forecast.io.

Closest aviation weather report (METAR) to Flughafen München-Riem

Closest report is Munich Airport, 13.5 nm (25.0 km) NNE. Retrieved 2022/07/01 16:20 UTC (0 seconds ago):

EDDM 011620Z AUTO 27004KT 250V310 9999 SCT015 BKN030 BKN043 15/12 Q1023 NOSIG

Closest aviation forecast (TAF) to Flughafen München-Riem

Closest forecast is Munich Airport, 13.5 nm (25.0 km) NNE. Retrieved 2022/07/01 12:27 UTC (4 hours ago):

TAF EDDM 011100Z 0112/0218 26009KT 9999 SCT015 BKN020 PROB30 TEMPO 0112/0115 RA BKN012 BECMG 0117/0119 VRB02KT BECMG 0200/0202 3000 BCFG TEMPO 0202/0208 0400 FG VV001 BECMG 0206/0208 08008KT 9999